sensor_id;sensor_type;location;lat;lon;timestamp;temperature;humidity
2439;DHT22;14509;47.992;7.848;2023-03-24T00:01:14;20.40;36.60
2439;DHT22;14509;47.992;7.848;2023-03-24T00:03:16;20.40;36.60
2439;DHT22;14509;47.992;7.848;2023-03-24T00:05:21;20.40;36.50
2439;DHT22;14509;47.992;7.848;2023-03-24T00:07:23;20.50;36.50
2439;DHT22;14509;47.992;7.848;2023-03-24T00:09:27;20.40;36.30
2439;DHT22;14509;47.992;7.848;2023-03-24T00:11:30;20.50;36.20
2439;DHT22;14509;47.992;7.848;2023-03-24T00:13:35;20.40;35.90
2439;DHT22;14509;47.992;7.848;2023-03-24T00:15:37;20.70;36.10
2439;DHT22;14509;47.992;7.848;2023-03-24T00:17:39;20.80;36.00
2439;DHT22;14509;47.992;7.848;2023-03-24T00:19:42;20.60;35.80
2439;DHT22;14509;47.992;7.848;2023-03-24T00:21:44;20.60;35.60
2439;DHT22;14509;47.992;7.848;2023-03-24T00:23:47;20.60;35.40
2439;DHT22;14509;47.992;7.848;2023-03-24T00:25:58;21.20;35.70
2439;DHT22;14509;47.992;7.848;2023-03-24T00:28:02;20.70;35.20
2439;DHT22;14509;47.992;7.848;2023-03-24T00:30:07;20.70;35.00
2439;DHT22;14509;47.992;7.848;2023-03-24T00:32:11;20.80;35.00
2439;DHT22;14509;47.992;7.848;2023-03-24T00:34:12;20.80;34.70
2439;DHT22;14509;47.992;7.848;2023-03-24T00:36:16;20.80;34.50
2439;DHT22;14509;47.992;7.848;2023-03-24T00:38:19;20.80;34.30
2439;DHT22;14509;47.992;7.848;2023-03-24T00:40:21;20.90;34.20
2439;DHT22;14509;47.992;7.848;2023-03-24T00:42:25;21.20;34.20
2439;DHT22;14509;47.992;7.848;2023-03-24T00:44:28;21.10;34.00
2439;DHT22;14509;47.992;7.848;2023-03-24T00:46:30;21.10;33.90
2439;DHT22;14509;47.992;7.848;2023-03-24T00:48:33;21.20;34.10
2439;DHT22;14509;47.992;7.848;2023-03-24T00:50:38;21.30;34.10
2439;DHT22;14509;47.992;7.848;2023-03-24T00:52:41;21.40;34.20
2439;DHT22;14509;47.992;7.848;2023-03-24T00:54:49;21.50;34.30
2439;DHT22;14509;47.992;7.848;2023-03-24T00:56:51;21.50;34.20
2439;DHT22;14509;47.992;7.848;2023-03-24T00:58:57;22.00;34.60
2439;DHT22;14509;47.992;7.848;2023-03-24T01:01:01;21.50;35.50
2439;DHT22;14509;47.992;7.848;2023-03-24T01:03:07;22.00;36.20
2439;DHT22;14509;47.992;7.848;2023-03-24T01:05:09;21.50;36.50
2439;DHT22;14509;47.992;7.848;2023-03-24T01:07:11;21.20;36.70
2439;DHT22;14509;47.992;7.848;2023-03-24T01:09:13;21.10;37.10
2439;DHT22;14509;47.992;7.848;2023-03-24T01:11:15;20.90;37.00
2439;DHT22;14509;47.992;7.848;2023-03-24T01:13:18;20.90;37.30
2439;DHT22;14509;47.992;7.848;2023-03-24T01:15:24;20.80;37.30
2439;DHT22;14509;47.992;7.848;2023-03-24T01:17:27;20.80;37.10
2439;DHT22;14509;47.992;7.848;2023-03-24T01:19:30;20.70;37.30
2439;DHT22;14509;47.992;7.848;2023-03-24T01:21:32;20.70;37.50
2439;DHT22;14509;47.992;7.848;2023-03-24T01:23:35;20.70;37.00
2439;DHT22;14509;47.992;7.848;2023-03-24T01:25:37;20.70;37.20
2439;DHT22;14509;47.992;7.848;2023-03-24T01:27:42;20.80;37.80
2439;DHT22;14509;47.992;7.848;2023-03-24T01:29:44;20.80;37.00
2439;DHT22;14509;47.992;7.848;2023-03-24T01:31:47;20.90;37.10
2439;DHT22;14509;47.992;7.848;2023-03-24T01:33:49;20.80;37.00
2439;DHT22;14509;47.992;7.848;2023-03-24T01:35:51;21.10;37.30
2439;DHT22;14509;47.992;7.848;2023-03-24T01:37:53;20.90;37.10
2439;DHT22;14509;47.992;7.848;2023-03-24T01:39:55;20.80;37.00
2439;DHT22;14509;47.992;7.848;2023-03-24T01:41:57;21.10;37.20
2439;DHT22;14509;47.992;7.848;2023-03-24T01:43:59;20.80;37.00
2439;DHT22;14509;47.992;7.848;2023-03-24T01:46:06;20.80;36.90
2439;DHT22;14509;47.992;7.848;2023-03-24T01:48:13;20.80;37.10
2439;DHT22;14509;47.992;7.848;2023-03-24T01:50:16;20.70;37.10
2439;DHT22;14509;47.992;7.848;2023-03-24T01:52:23;20.70;37.30
2439;DHT22;14509;47.992;7.848;2023-03-24T01:54:28;20.70;37.40
2439;DHT22;14509;47.992;7.848;2023-03-24T01:56:36;20.70;37.80
2439;DHT22;14509;47.992;7.848;2023-03-24T01:58:44;21.10;38.60
2439;DHT22;14509;47.992;7.848;2023-03-24T02:00:58;20.60;38.20
2439;DHT22;14509;47.992;7.848;2023-03-24T02:03:22;20.60;38.00
2439;DHT22;14509;47.992;7.848;2023-03-24T02:05:32;20.60;38.20
2439;DHT22;14509;47.992;7.848;2023-03-24T02:07:40;20.90;38.50
2439;DHT22;14509;47.992;7.848;2023-03-24T02:09:43;20.70;38.30
2439;DHT22;14509;47.992;7.848;2023-03-24T02:11:45;20.60;38.10
2439;DHT22;14509;47.992;7.848;2023-03-24T02:13:47;20.60;38.00
2439;DHT22;14509;47.992;7.848;2023-03-24T02:15:58;20.60;38.00
2439;DHT22;14509;47.992;7.848;2023-03-24T02:18:05;20.60;37.90
2439;DHT22;14509;47.992;7.848;2023-03-24T02:20:31;20.70;37.10
2439;DHT22;14509;47.992;7.848;2023-03-24T02:25:41;20.80;35.40
2439;DHT22;14509;47.992;7.848;2023-03-24T02:28:07;20.70;34.80
2439;DHT22;14509;47.992;7.848;2023-03-24T02:30:25;21.00;34.70
2439;DHT22;14509;47.992;7.848;2023-03-24T02:35:38;21.20;33.90
2439;DHT22;14509;47.992;7.848;2023-03-24T02:40:25;21.50;33.60
2439;DHT22;14509;47.992;7.848;2023-03-24T02:42:36;21.60;33.50
2439;DHT22;14509;47.992;7.848;2023-03-24T02:44:45;21.80;33.20
2439;DHT22;14509;47.992;7.848;2023-03-24T02:46:53;22.00;33.10
2439;DHT22;14509;47.992;7.848;2023-03-24T02:49:06;22.00;33.10
2439;DHT22;14509;47.992;7.848;2023-03-24T02:51:14;22.10;33.10
2439;DHT22;14509;47.992;7.848;2023-03-24T02:53:24;22.10;35.10
2439;DHT22;14509;47.992;7.848;2023-03-24T21:00:50;16.10;49.40
2439;DHT22;14509;47.992;7.848;2023-03-24T21:02:53;16.00;49.50
2439;DHT22;14509;47.992;7.848;2023-03-24T21:04:55;16.00;50.00
2439;DHT22;14509;47.992;7.848;2023-03-24T21:06:56;15.90;50.60
2439;DHT22;14509;47.992;7.848;2023-03-24T21:08:58;15.70;50.80
2439;DHT22;14509;47.992;7.848;2023-03-24T21:11:00;15.50;50.50
2439;DHT22;14509;47.992;7.848;2023-03-24T21:13:02;15.50;50.90
2439;DHT22;14509;47.992;7.848;2023-03-24T21:15:05;15.20;50.20
2439;DHT22;14509;47.992;7.848;2023-03-24T21:17:09;15.00;50.50
2439;DHT22;14509;47.992;7.848;2023-03-24T21:19:11;14.90;50.50
2439;DHT22;14509;47.992;7.848;2023-03-24T21:21:14;14.80;50.90
2439;DHT22;14509;47.992;7.848;2023-03-24T21:23:16;15.00;50.80
2439;DHT22;14509;47.992;7.848;2023-03-24T21:25:34;15.30;50.80
2439;DHT22;14509;47.992;7.848;2023-03-24T21:27:37;14.70;50.40
2439;DHT22;14509;47.992;7.848;2023-03-24T21:29:39;14.60;49.80
2439;DHT22;14509;47.992;7.848;2023-03-24T21:31:41;15.20;50.60
2439;DHT22;14509;47.992;7.848;2023-03-24T21:33:44;14.80;49.60
2439;DHT22;14509;47.992;7.848;2023-03-24T21:35:46;15.00;49.40
2439;DHT22;14509;47.992;7.848;2023-03-24T21:37:49;15.00;49.20
2439;DHT22;14509;47.992;7.848;2023-03-24T21:39:55;15.20;48.60
2439;DHT22;14509;47.992;7.848;2023-03-24T21:42:00;15.30;48.10
2439;DHT22;14509;47.992;7.848;2023-03-24T21:44:07;15.40;48.20
2439;DHT22;14509;47.992;7.848;2023-03-24T21:46:09;15.50;47.80
2439;DHT22;14509;47.992;7.848;2023-03-24T21:48:20;15.80;47.50
2439;DHT22;14509;47.992;7.848;2023-03-24T21:50:25;15.50;47.30
2439;DHT22;14509;47.992;7.848;2023-03-24T21:52:28;15.40;47.50
2439;DHT22;14509;47.992;7.848;2023-03-24T21:54:33;15.60;47.50
2439;DHT22;14509;47.992;7.848;2023-03-24T21:56:38;15.70;46.90
2439;DHT22;14509;47.992;7.848;2023-03-24T21:58:43;15.70;47.60
2439;DHT22;14509;47.992;7.848;2023-03-24T22:00:46;15.80;47.20
2439;DHT22;14509;47.992;7.848;2023-03-24T22:02:50;15.80;47.00
2439;DHT22;14509;47.992;7.848;2023-03-24T22:04:53;16.00;46.90
2439;DHT22;14509;47.992;7.848;2023-03-24T22:07:02;15.90;46.70
2439;DHT22;14509;47.992;7.848;2023-03-24T22:09:06;15.90;46.80
2439;DHT22;14509;47.992;7.848;2023-03-24T22:11:10;16.10;47.00
2439;DHT22;14509;47.992;7.848;2023-03-24T22:13:14;15.70;47.20
2439;DHT22;14509;47.992;7.848;2023-03-24T22:15:17;15.60;47.50
2439;DHT22;14509;47.992;7.848;2023-03-24T22:17:19;15.70;47.80
2439;DHT22;14509;47.992;7.848;2023-03-24T22:19:21;15.70;47.90
2439;DHT22;14509;47.992;7.848;2023-03-24T22:21:23;15.50;48.20
2439;DHT22;14509;47.992;7.848;2023-03-24T22:23:26;15.40;48.70
2439;DHT22;14509;47.992;7.848;2023-03-24T22:25:32;15.30;49.20
2439;DHT22;14509;47.992;7.848;2023-03-24T22:27:34;15.30;49.40
2439;DHT22;14509;47.992;7.848;2023-03-24T22:29:37;15.30;49.50
2439;DHT22;14509;47.992;7.848;2023-03-24T22:31:40;15.60;49.60
2439;DHT22;14509;47.992;7.848;2023-03-24T22:33:44;15.30;49.50
2439;DHT22;14509;47.992;7.848;2023-03-24T22:35:47;15.30;49.50
2439;DHT22;14509;47.992;7.848;2023-03-24T22:37:49;15.40;49.80
2439;DHT22;14509;47.992;7.848;2023-03-24T22:39:52;15.20;49.80
2439;DHT22;14509;47.992;7.848;2023-03-24T22:41:54;15.00;49.80
2439;DHT22;14509;47.992;7.848;2023-03-24T22:43:57;15.00;50.10
2439;DHT22;14509;47.992;7.848;2023-03-24T22:45:59;14.90;49.90
2439;DHT22;14509;47.992;7.848;2023-03-24T22:48:01;15.00;50.20
2439;DHT22;14509;47.992;7.848;2023-03-24T22:50:04;14.90;50.30
2439;DHT22;14509;47.992;7.848;2023-03-24T22:52:08;14.80;49.60
2439;DHT22;14509;47.992;7.848;2023-03-24T22:54:10;14.70;49.80
2439;DHT22;14509;47.992;7.848;2023-03-24T22:56:14;14.80;49.90
2439;DHT22;14509;47.992;7.848;2023-03-24T22:58:16;15.20;49.80
2439;DHT22;14509;47.992;7.848;2023-03-24T23:00:18;15.00;49.40
2439;DHT22;14509;47.992;7.848;2023-03-24T23:02:20;15.10;49.10
2439;DHT22;14509;47.992;7.848;2023-03-24T23:04:24;15.30;48.70
2439;DHT22;14509;47.992;7.848;2023-03-24T23:06:26;15.10;48.40
2439;DHT22;14509;47.992;7.848;2023-03-24T23:08:29;15.10;48.50
2439;DHT22;14509;47.992;7.848;2023-03-24T23:10:31;15.10;48.70
2439;DHT22;14509;47.992;7.848;2023-03-24T23:12:34;15.20;48.60
2439;DHT22;14509;47.992;7.848;2023-03-24T23:14:37;15.20;48.80
2439;DHT22;14509;47.992;7.848;2023-03-24T23:16:39;15.10;48.70
2439;DHT22;14509;47.992;7.848;2023-03-24T23:18:42;15.10;48.90
2439;DHT22;14509;47.992;7.848;2023-03-24T23:20:44;15.10;48.60
2439;DHT22;14509;47.992;7.848;2023-03-24T23:22:46;15.20;48.40
2439;DHT22;14509;47.992;7.848;2023-03-24T23:24:48;15.60;48.30
2439;DHT22;14509;47.992;7.848;2023-03-24T23:26:53;15.30;47.50
2439;DHT22;14509;47.992;7.848;2023-03-24T23:28:56;15.30;47.30
2439;DHT22;14509;47.992;7.848;2023-03-24T23:30:58;15.20;47.20
2439;DHT22;14509;47.992;7.848;2023-03-24T23:33:00;15.20;47.50
2439;DHT22;14509;47.992;7.848;2023-03-24T23:35:06;15.30;47.40
2439;DHT22;14509;47.992;7.848;2023-03-24T23:37:09;15.30;47.10
2439;DHT22;14509;47.992;7.848;2023-03-24T23:39:11;15.40;47.00
2439;DHT22;14509;47.992;7.848;2023-03-24T23:41:13;15.40;46.70
2439;DHT22;14509;47.992;7.848;2023-03-24T23:43:15;15.40;46.90
2439;DHT22;14509;47.992;7.848;2023-03-24T23:45:19;15.50;46.80
2439;DHT22;14509;47.992;7.848;2023-03-24T23:47:21;15.60;46.50
2439;DHT22;14509;47.992;7.848;2023-03-24T23:49:23;15.80;46.40
2439;DHT22;14509;47.992;7.848;2023-03-24T23:51:25;15.80;46.00
2439;DHT22;14509;47.992;7.848;2023-03-24T23:53:28;15.80;45.80
2439;DHT22;14509;47.992;7.848;2023-03-24T23:55:30;15.70;45.80
2439;DHT22;14509;47.992;7.848;2023-03-24T23:57:32;15.60;46.10
2439;DHT22;14509;47.992;7.848;2023-03-24T23:59:35;15.60;45.90
